sensor_id;sensor_type;location;lat;lon;timestamp;P1;durP1;ratioP1;P2;durP2;ratioP2
68700;SDS011;55682;51.114;5.882;2023-11-21T00:00:49;10.38;;;10.35;;
68700;SDS011;55682;51.114;5.882;2023-11-21T00:03:14;10.79;;;10.74;;
68700;SDS011;55682;51.114;5.882;2023-11-21T00:05:40;11.06;;;11.05;;
68700;SDS011;55682;51.114;5.882;2023-11-21T00:08:07;10.42;;;10.42;;
68700;SDS011;55682;51.114;5.882;2023-11-21T00:10:33;10.40;;;10.40;;
68700;SDS011;55682;51.114;5.882;2023-11-21T00:13:00;10.17;;;10.17;;
68700;SDS011;55682;51.114;5.882;2023-11-21T00:15:28;10.28;;;10.28;;
68700;SDS011;55682;51.114;5.882;2023-11-21T00:17:53;10.29;;;10.29;;
68700;SDS011;55682;51.114;5.882;2023-11-21T00:20:19;10.87;;;10.87;;
68700;SDS011;55682;51.114;5.882;2023-11-21T00:22:46;10.24;;;10.24;;
68700;SDS011;55682;51.114;5.882;2023-11-21T00:25:12;10.50;;;10.47;;
68700;SDS011;55682;51.114;5.882;2023-11-21T00:27:40;10.43;;;10.43;;
68700;SDS011;55682;51.114;5.882;2023-11-21T00:30:06;10.38;;;10.38;;
68700;SDS011;55682;51.114;5.882;2023-11-21T00:32:35;9.84;;;9.84;;
68700;SDS011;55682;51.114;5.882;2023-11-21T00:35:01;9.68;;;9.68;;
68700;SDS011;55682;51.114;5.882;2023-11-21T00:37:27;9.97;;;9.97;;
68700;SDS011;55682;51.114;5.882;2023-11-21T00:39:53;10.24;;;10.24;;
68700;SDS011;55682;51.114;5.882;2023-11-21T00:42:19;10.16;;;10.16;;
68700;SDS011;55682;51.114;5.882;2023-11-21T00:44:44;10.14;;;10.14;;
68700;SDS011;55682;51.114;5.882;2023-11-21T00:47:10;10.22;;;10.22;;
68700;SDS011;55682;51.114;5.882;2023-11-21T00:49:36;9.94;;;9.94;;
68700;SDS011;55682;51.114;5.882;2023-11-21T00:52:01;10.18;;;10.18;;
68700;SDS011;55682;51.114;5.882;2023-11-21T00:54:28;10.74;;;10.74;;
68700;SDS011;55682;51.114;5.882;2023-11-21T00:56:53;10.29;;;10.29;;
68700;SDS011;55682;51.114;5.882;2023-11-21T00:59:19;10.30;;;10.30;;
68700;SDS011;55682;51.114;5.882;2023-11-21T01:01:44;10.50;;;10.50;;
68700;SDS011;55682;51.114;5.882;2023-11-21T01:04:10;10.94;;;10.93;;
68700;SDS011;55682;51.114;5.882;2023-11-21T01:06:36;11.22;;;11.22;;
68700;SDS011;55682;51.114;5.882;2023-11-21T01:09:01;10.82;;;10.82;;
68700;SDS011;55682;51.114;5.882;2023-11-21T01:11:33;11.72;;;11.61;;
68700;SDS011;55682;51.114;5.882;2023-11-21T01:14:01;12.24;;;12.03;;
68700;SDS011;55682;51.114;5.882;2023-11-21T01:16:30;11.54;;;11.46;;
68700;SDS011;55682;51.114;5.882;2023-11-21T01:18:58;11.63;;;11.63;;
68700;SDS011;55682;51.114;5.882;2023-11-21T01:21:24;12.46;;;12.45;;
68700;SDS011;55682;51.114;5.882;2023-11-21T01:23:50;12.26;;;12.25;;
68700;SDS011;55682;51.114;5.882;2023-11-21T01:26:16;11.59;;;11.58;;
68700;SDS011;55682;51.114;5.882;2023-11-21T01:28:41;12.15;;;12.15;;
68700;SDS011;55682;51.114;5.882;2023-11-21T01:31:07;11.72;;;11.72;;
68700;SDS011;55682;51.114;5.882;2023-11-21T01:33:33;12.24;;;12.24;;
68700;SDS011;55682;51.114;5.882;2023-11-21T01:35:58;12.32;;;12.29;;
68700;SDS011;55682;51.114;5.882;2023-11-21T01:38:25;12.10;;;12.08;;
68700;SDS011;55682;51.114;5.882;2023-11-21T01:40:51;12.95;;;12.95;;
68700;SDS011;55682;51.114;5.882;2023-11-21T01:43:17;12.95;;;12.94;;
68700;SDS011;55682;51.114;5.882;2023-11-21T01:45:43;12.51;;;12.50;;
68700;SDS011;55682;51.114;5.882;2023-11-21T01:48:10;12.53;;;12.47;;
68700;SDS011;55682;51.114;5.882;2023-11-21T01:50:37;12.61;;;12.60;;
68700;SDS011;55682;51.114;5.882;2023-11-21T01:53:03;12.52;;;12.52;;
68700;SDS011;55682;51.114;5.882;2023-11-21T01:55:31;11.76;;;11.76;;
68700;SDS011;55682;51.114;5.882;2023-11-21T01:57:59;11.75;;;11.75;;
68700;SDS011;55682;51.114;5.882;2023-11-21T02:00:25;12.03;;;11.99;;
68700;SDS011;55682;51.114;5.882;2023-11-21T02:02:54;11.79;;;11.73;;
68700;SDS011;55682;51.114;5.882;2023-11-21T02:05:20;11.87;;;11.87;;
68700;SDS011;55682;51.114;5.882;2023-11-21T02:07:47;12.25;;;12.25;;
68700;SDS011;55682;51.114;5.882;2023-11-21T02:10:14;12.38;;;12.38;;
68700;SDS011;55682;51.114;5.882;2023-11-21T02:12:41;12.24;;;12.17;;
68700;SDS011;55682;51.114;5.882;2023-11-21T02:15:08;12.45;;;12.38;;
68700;SDS011;55682;51.114;5.882;2023-11-21T02:17:42;13.26;;;13.18;;
68700;SDS011;55682;51.114;5.882;2023-11-21T02:20:16;12.82;;;12.77;;
68700;SDS011;55682;51.114;5.882;2023-11-21T02:22:43;13.09;;;13.08;;
68700;SDS011;55682;51.114;5.882;2023-11-21T02:25:24;13.46;;;13.39;;
68700;SDS011;55682;51.114;5.882;2023-11-21T02:27:53;13.64;;;13.59;;
68700;SDS011;55682;51.114;5.882;2023-11-21T02:30:22;13.17;;;13.13;;
68700;SDS011;55682;51.114;5.882;2023-11-21T02:32:51;13.42;;;13.39;;
68700;SDS011;55682;51.114;5.882;2023-11-21T02:35:22;12.93;;;12.82;;
68700;SDS011;55682;51.114;5.882;2023-11-21T02:37:48;13.19;;;13.19;;
68700;SDS011;55682;51.114;5.882;2023-11-21T02:40:15;12.67;;;12.67;;
68700;SDS011;55682;51.114;5.882;2023-11-21T02:42:48;12.17;;;12.17;;
68700;SDS011;55682;51.114;5.882;2023-11-21T02:45:16;12.34;;;12.31;;
68700;SDS011;55682;51.114;5.882;2023-11-21T02:47:44;12.57;;;12.43;;
68700;SDS011;55682;51.114;5.882;2023-11-21T02:50:10;12.12;;;12.04;;
68700;SDS011;55682;51.114;5.882;2023-11-21T02:52:36;12.09;;;12.01;;
68700;SDS011;55682;51.114;5.882;2023-11-21T02:55:02;12.32;;;12.25;;
68700;SDS011;55682;51.114;5.882;2023-11-21T02:57:28;12.04;;;11.89;;
68700;SDS011;55682;51.114;5.882;2023-11-21T02:59:54;12.65;;;12.50;;
68700;SDS011;55682;51.114;5.882;2023-11-21T03:02:20;11.62;;;11.48;;
68700;SDS011;55682;51.114;5.882;2023-11-21T03:04:46;11.64;;;11.51;;
68700;SDS011;55682;51.114;5.882;2023-11-21T03:07:13;12.43;;;12.22;;
68700;SDS011;55682;51.114;5.882;2023-11-21T03:09:39;11.83;;;11.72;;
68700;SDS011;55682;51.114;5.882;2023-11-21T03:12:04;12.41;;;12.13;;
68700;SDS011;55682;51.114;5.882;2023-11-21T03:14:30;12.05;;;11.83;;
68700;SDS011;55682;51.114;5.882;2023-11-21T03:16:56;11.73;;;11.52;;
68700;SDS011;55682;51.114;5.882;2023-11-21T03:19:22;12.06;;;11.79;;
68700;SDS011;55682;51.114;5.882;2023-11-21T03:21:48;12.33;;;12.18;;
68700;SDS011;55682;51.114;5.882;2023-11-21T03:24:14;12.45;;;12.36;;
68700;SDS011;55682;51.114;5.882;2023-11-21T03:26:44;12.30;;;12.12;;
68700;SDS011;55682;51.114;5.882;2023-11-21T03:29:11;12.19;;;11.98;;
68700;SDS011;55682;51.114;5.882;2023-11-21T03:31:37;12.02;;;11.85;;
68700;SDS011;55682;51.114;5.882;2023-11-21T03:34:03;12.60;;;12.41;;
68700;SDS011;55682;51.114;5.882;2023-11-21T03:36:28;12.35;;;12.16;;
68700;SDS011;55682;51.114;5.882;2023-11-21T03:38:54;12.45;;;12.19;;
68700;SDS011;55682;51.114;5.882;2023-11-21T03:41:21;12.46;;;12.26;;
68700;SDS011;55682;51.114;5.882;2023-11-21T03:43:46;12.27;;;12.07;;
68700;SDS011;55682;51.114;5.882;2023-11-21T03:46:13;11.90;;;11.75;;
68700;SDS011;55682;51.114;5.882;2023-11-21T03:48:39;12.35;;;12.17;;
68700;SDS011;55682;51.114;5.882;2023-11-21T03:51:04;12.07;;;11.87;;
68700;SDS011;55682;51.114;5.882;2023-11-21T03:53:33;12.58;;;12.19;;
68700;SDS011;55682;51.114;5.882;2023-11-21T03:55:59;12.18;;;11.86;;
68700;SDS011;55682;51.114;5.882;2023-11-21T03:58:28;12.26;;;11.98;;
68700;SDS011;55682;51.114;5.882;2023-11-21T04:00:53;12.10;;;11.89;;
68700;SDS011;55682;51.114;5.882;2023-11-21T04:03:19;12.23;;;12.02;;
68700;SDS011;55682;51.114;5.882;2023-11-21T04:05:45;12.31;;;11.99;;
68700;SDS011;55682;51.114;5.882;2023-11-21T04:08:11;13.39;;;12.82;;
68700;SDS011;55682;51.114;5.882;2023-11-21T04:10:36;12.98;;;12.59;;
68700;SDS011;55682;51.114;5.882;2023-11-21T04:13:04;13.05;;;12.54;;
68700;SDS011;55682;51.114;5.882;2023-11-21T04:15:32;12.70;;;12.39;;
68700;SDS011;55682;51.114;5.882;2023-11-21T04:17:57;13.17;;;12.55;;
68700;SDS011;55682;51.114;5.882;2023-11-21T04:20:24;13.29;;;12.67;;
68700;SDS011;55682;51.114;5.882;2023-11-21T04:22:50;12.78;;;12.48;;
68700;SDS011;55682;51.114;5.882;2023-11-21T04:25:16;12.83;;;12.52;;
68700;SDS011;55682;51.114;5.882;2023-11-21T04:27:43;13.41;;;12.90;;
68700;SDS011;55682;51.114;5.882;2023-11-21T04:30:10;13.21;;;12.74;;
68700;SDS011;55682;51.114;5.882;2023-11-21T04:32:36;12.82;;;12.41;;
68700;SDS011;55682;51.114;5.882;2023-11-21T04:35:02;13.98;;;13.01;;
68700;SDS011;55682;51.114;5.882;2023-11-21T04:37:29;13.26;;;12.67;;
68700;SDS011;55682;51.114;5.882;2023-11-21T04:39:55;12.99;;;12.47;;
68700;SDS011;55682;51.114;5.882;2023-11-21T04:42:20;12.90;;;12.13;;
68700;SDS011;55682;51.114;5.882;2023-11-21T04:44:46;13.32;;;12.58;;
68700;SDS011;55682;51.114;5.882;2023-11-21T04:47:12;12.99;;;12.57;;
68700;SDS011;55682;51.114;5.882;2023-11-21T04:49:39;12.60;;;12.24;;
68700;SDS011;55682;51.114;5.882;2023-11-21T04:52:08;13.04;;;12.44;;
68700;SDS011;55682;51.114;5.882;2023-11-21T04:54:35;14.00;;;13.22;;
68700;SDS011;55682;51.114;5.882;2023-11-21T04:57:01;14.00;;;13.19;;
68700;SDS011;55682;51.114;5.882;2023-11-21T04:59:26;14.57;;;13.69;;
68700;SDS011;55682;51.114;5.882;2023-11-21T05:01:52;15.77;;;14.39;;
68700;SDS011;55682;51.114;5.882;2023-11-21T05:04:21;16.73;;;15.03;;
68700;SDS011;55682;51.114;5.882;2023-11-21T05:06:47;18.00;;;15.85;;
68700;SDS011;55682;51.114;5.882;2023-11-21T05:09:13;19.73;;;16.75;;
68700;SDS011;55682;51.114;5.882;2023-11-21T05:11:40;17.01;;;15.26;;
68700;SDS011;55682;51.114;5.882;2023-11-21T05:14:06;17.01;;;15.12;;
68700;SDS011;55682;51.114;5.882;2023-11-21T05:16:32;17.26;;;15.08;;
68700;SDS011;55682;51.114;5.882;2023-11-21T05:18:57;15.73;;;13.73;;
68700;SDS011;55682;51.114;5.882;2023-11-21T05:21:25;15.04;;;13.25;;
68700;SDS011;55682;51.114;5.882;2023-11-21T05:23:56;17.50;;;14.87;;
68700;SDS011;55682;51.114;5.882;2023-11-21T05:26:22;20.34;;;16.62;;
68700;SDS011;55682;51.114;5.882;2023-11-21T05:28:47;18.62;;;15.69;;
68700;SDS011;55682;51.114;5.882;2023-11-21T05:31:13;18.34;;;15.38;;
68700;SDS011;55682;51.114;5.882;2023-11-21T05:33:39;18.87;;;15.63;;
68700;SDS011;55682;51.114;5.882;2023-11-21T05:36:06;20.84;;;16.83;;
68700;SDS011;55682;51.114;5.882;2023-11-21T05:38:33;19.73;;;16.09;;
68700;SDS011;55682;51.114;5.882;2023-11-21T05:41:01;20.31;;;16.35;;
68700;SDS011;55682;51.114;5.882;2023-11-21T05:43:27;20.42;;;16.94;;
68700;SDS011;55682;51.114;5.882;2023-11-21T05:45:54;20.72;;;16.87;;
68700;SDS011;55682;51.114;5.882;2023-11-21T05:48:20;22.84;;;18.04;;
68700;SDS011;55682;51.114;5.882;2023-11-21T05:50:46;20.79;;;16.46;;
68700;SDS011;55682;51.114;5.882;2023-11-21T05:53:12;19.55;;;15.57;;
68700;SDS011;55682;51.114;5.882;2023-11-21T05:55:40;20.57;;;16.01;;
68700;SDS011;55682;51.114;5.882;2023-11-21T05:58:06;20.40;;;16.22;;
68700;SDS011;55682;51.114;5.882;2023-11-21T06:00:33;21.53;;;17.27;;
68700;SDS011;55682;51.114;5.882;2023-11-21T06:02:58;21.81;;;17.19;;
68700;SDS011;55682;51.114;5.882;2023-11-21T06:05:24;22.80;;;17.54;;
68700;SDS011;55682;51.114;5.882;2023-11-21T06:07:51;21.91;;;17.30;;
68700;SDS011;55682;51.114;5.882;2023-11-21T06:10:19;19.81;;;15.83;;
68700;SDS011;55682;51.114;5.882;2023-11-21T06:12:46;18.88;;;15.25;;
68700;SDS011;55682;51.114;5.882;2023-11-21T06:15:12;18.80;;;15.11;;
68700;SDS011;55682;51.114;5.882;2023-11-21T06:17:41;18.90;;;15.41;;
68700;SDS011;55682;51.114;5.882;2023-11-21T06:20:11;19.64;;;15.95;;
68700;SDS011;55682;51.114;5.882;2023-11-21T06:22:44;18.08;;;14.91;;
68700;SDS011;55682;51.114;5.882;2023-11-21T06:25:11;17.89;;;15.14;;
68700;SDS011;55682;51.114;5.882;2023-11-21T06:27:44;19.14;;;15.88;;
68700;SDS011;55682;51.114;5.882;2023-11-21T06:30:13;20.04;;;16.23;;
68700;SDS011;55682;51.114;5.882;2023-11-21T06:32:40;19.07;;;15.64;;
68700;SDS011;55682;51.114;5.882;2023-11-21T06:35:07;17.90;;;15.06;;
68700;SDS011;55682;51.114;5.882;2023-11-21T06:37:36;18.11;;;15.42;;
68700;SDS011;55682;51.114;5.882;2023-11-21T06:40:03;20.25;;;16.61;;
68700;SDS011;55682;51.114;5.882;2023-11-21T06:42:29;22.30;;;17.52;;
68700;SDS011;55682;51.114;5.882;2023-11-21T06:44:55;21.99;;;17.30;;
68700;SDS011;55682;51.114;5.882;2023-11-21T06:47:23;20.51;;;16.67;;
68700;SDS011;55682;51.114;5.882;2023-11-21T06:49:50;22.65;;;17.58;;
68700;SDS011;55682;51.114;5.882;2023-11-21T06:52:16;21.42;;;17.02;;
68700;SDS011;55682;51.114;5.882;2023-11-21T06:54:43;21.32;;;16.77;;
68700;SDS011;55682;51.114;5.882;2023-11-21T06:57:10;20.55;;;16.39;;
68700;SDS011;55682;51.114;5.882;2023-11-21T06:59:36;19.30;;;15.75;;
68700;SDS011;55682;51.114;5.882;2023-11-21T07:02:02;20.80;;;16.63;;
68700;SDS011;55682;51.114;5.882;2023-11-21T07:04:28;18.95;;;15.55;;
68700;SDS011;55682;51.114;5.882;2023-11-21T07:06:53;18.45;;;15.05;;
68700;SDS011;55682;51.114;5.882;2023-11-21T07:09:20;18.89;;;15.51;;
68700;SDS011;55682;51.114;5.882;2023-11-21T07:11:49;19.55;;;15.79;;
68700;SDS011;55682;51.114;5.882;2023-11-21T07:14:15;19.74;;;16.10;;
68700;SDS011;55682;51.114;5.882;2023-11-21T07:16:42;17.98;;;14.94;;
68700;SDS011;55682;51.114;5.882;2023-11-21T07:19:08;17.54;;;14.66;;
68700;SDS011;55682;51.114;5.882;2023-11-21T07:21:34;18.05;;;14.99;;
68700;SDS011;55682;51.114;5.882;2023-11-21T07:24:01;16.90;;;14.42;;
68700;SDS011;55682;51.114;5.882;2023-11-21T07:26:27;15.73;;;13.67;;
68700;SDS011;55682;51.114;5.882;2023-11-21T07:28:53;16.06;;;13.97;;
68700;SDS011;55682;51.114;5.882;2023-11-21T07:31:19;15.83;;;14.11;;
68700;SDS011;55682;51.114;5.882;2023-11-21T07:33:45;17.49;;;15.39;;
68700;SDS011;55682;51.114;5.882;2023-11-21T07:36:12;17.60;;;15.03;;
68700;SDS011;55682;51.114;5.882;2023-11-21T07:38:38;16.26;;;14.01;;
68700;SDS011;55682;51.114;5.882;2023-11-21T07:41:05;17.61;;;14.99;;
68700;SDS011;55682;51.114;5.882;2023-11-21T07:43:33;17.63;;;15.00;;
68700;SDS011;55682;51.114;5.882;2023-11-21T07:46:03;17.77;;;14.85;;
68700;SDS011;55682;51.114;5.882;2023-11-21T07:48:32;18.43;;;15.52;;
68700;SDS011;55682;51.114;5.882;2023-11-21T07:50:59;17.04;;;14.61;;
68700;SDS011;55682;51.114;5.882;2023-11-21T07:53:26;19.14;;;15.91;;
68700;SDS011;55682;51.114;5.882;2023-11-21T07:55:54;19.96;;;16.65;;
68700;SDS011;55682;51.114;5.882;2023-11-21T07:58:20;20.44;;;17.32;;
68700;SDS011;55682;51.114;5.882;2023-11-21T08:00:46;19.73;;;16.58;;
68700;SDS011;55682;51.114;5.882;2023-11-21T08:03:15;19.61;;;16.42;;
68700;SDS011;55682;51.114;5.882;2023-11-21T08:05:41;21.58;;;17.76;;
68700;SDS011;55682;51.114;5.882;2023-11-21T08:08:07;23.49;;;18.95;;
68700;SDS011;55682;51.114;5.882;2023-11-21T08:10:33;22.88;;;18.79;;
68700;SDS011;55682;51.114;5.882;2023-11-21T08:12:59;24.35;;;19.58;;
68700;SDS011;55682;51.114;5.882;2023-11-21T08:15:24;23.57;;;19.00;;
68700;SDS011;55682;51.114;5.882;2023-11-21T08:17:50;21.64;;;17.97;;
68700;SDS011;55682;51.114;5.882;2023-11-21T08:20:16;21.22;;;18.01;;
68700;SDS011;55682;51.114;5.882;2023-11-21T08:22:45;22.01;;;18.28;;
68700;SDS011;55682;51.114;5.882;2023-11-21T08:25:12;21.10;;;17.43;;
68700;SDS011;55682;51.114;5.882;2023-11-21T08:27:38;19.22;;;16.23;;
68700;SDS011;55682;51.114;5.882;2023-11-21T08:30:04;19.58;;;16.51;;
68700;SDS011;55682;51.114;5.882;2023-11-21T08:32:30;18.79;;;15.95;;
68700;SDS011;55682;51.114;5.882;2023-11-21T08:34:58;19.53;;;16.21;;
68700;SDS011;55682;51.114;5.882;2023-11-21T08:37:24;18.71;;;15.59;;
68700;SDS011;55682;51.114;5.882;2023-11-21T08:39:52;20.44;;;17.11;;
68700;SDS011;55682;51.114;5.882;2023-11-21T08:42:18;21.21;;;17.35;;
68700;SDS011;55682;51.114;5.882;2023-11-21T08:44:45;17.93;;;15.34;;
68700;SDS011;55682;51.114;5.882;2023-11-21T08:47:11;20.28;;;17.05;;
68700;SDS011;55682;51.114;5.882;2023-11-21T08:49:37;19.15;;;16.07;;
68700;SDS011;55682;51.114;5.882;2023-11-21T08:52:03;19.89;;;16.79;;
68700;SDS011;55682;51.114;5.882;2023-11-21T08:54:30;19.95;;;16.81;;
68700;SDS011;55682;51.114;5.882;2023-11-21T08:56:56;20.37;;;17.08;;
68700;SDS011;55682;51.114;5.882;2023-11-21T08:59:24;19.50;;;16.40;;
68700;SDS011;55682;51.114;5.882;2023-11-21T09:01:50;20.38;;;16.96;;
68700;SDS011;55682;51.114;5.882;2023-11-21T09:04:16;18.53;;;15.85;;
68700;SDS011;55682;51.114;5.882;2023-11-21T09:06:41;18.81;;;15.80;;
68700;SDS011;55682;51.114;5.882;2023-11-21T09:09:07;19.69;;;16.42;;
68700;SDS011;55682;51.114;5.882;2023-11-21T09:11:35;18.82;;;15.76;;
68700;SDS011;55682;51.114;5.882;2023-11-21T09:14:02;18.90;;;15.78;;
68700;SDS011;55682;51.114;5.882;2023-11-21T09:16:31;19.45;;;16.44;;
68700;SDS011;55682;51.114;5.882;2023-11-21T09:18:57;20.91;;;16.89;;
68700;SDS011;55682;51.114;5.882;2023-11-21T09:21:23;22.40;;;17.71;;
68700;SDS011;55682;51.114;5.882;2023-11-21T09:23:50;21.55;;;17.36;;
68700;SDS011;55682;51.114;5.882;2023-11-21T09:26:16;20.48;;;16.75;;
68700;SDS011;55682;51.114;5.882;2023-11-21T09:28:45;20.61;;;16.71;;
68700;SDS011;55682;51.114;5.882;2023-11-21T09:31:13;20.08;;;16.79;;
68700;SDS011;55682;51.114;5.882;2023-11-21T09:33:42;19.84;;;16.67;;
68700;SDS011;55682;51.114;5.882;2023-11-21T09:36:12;22.27;;;18.13;;
68700;SDS011;55682;51.114;5.882;2023-11-21T09:38:39;21.73;;;17.54;;
68700;SDS011;55682;51.114;5.882;2023-11-21T09:41:05;22.75;;;18.29;;
68700;SDS011;55682;51.114;5.882;2023-11-21T09:43:44;23.48;;;18.84;;
68700;SDS011;55682;51.114;5.882;2023-11-21T09:46:11;22.26;;;17.95;;
68700;SDS011;55682;51.114;5.882;2023-11-21T09:48:46;23.64;;;18.63;;
68700;SDS011;55682;51.114;5.882;2023-11-21T09:51:15;22.57;;;17.91;;
68700;SDS011;55682;51.114;5.882;2023-11-21T09:53:45;23.69;;;18.53;;
68700;SDS011;55682;51.114;5.882;2023-11-21T09:56:17;22.24;;;17.75;;
68700;SDS011;55682;51.114;5.882;2023-11-21T09:58:50;20.82;;;16.87;;
68700;SDS011;55682;51.114;5.882;2023-11-21T10:01:18;22.93;;;17.98;;
68700;SDS011;55682;51.114;5.882;2023-11-21T10:03:45;21.49;;;17.34;;
68700;SDS011;55682;51.114;5.882;2023-11-21T10:06:13;20.17;;;16.79;;
68700;SDS011;55682;51.114;5.882;2023-11-21T10:08:41;18.72;;;15.50;;
68700;SDS011;55682;51.114;5.882;2023-11-21T10:11:08;19.39;;;16.04;;
68700;SDS011;55682;51.114;5.882;2023-11-21T10:13:36;20.31;;;16.53;;
68700;SDS011;55682;51.114;5.882;2023-11-21T10:16:04;21.64;;;17.27;;
68700;SDS011;55682;51.114;5.882;2023-11-21T10:18:37;21.90;;;17.26;;
68700;SDS011;55682;51.114;5.882;2023-11-21T10:21:06;23.09;;;18.09;;
68700;SDS011;55682;51.114;5.882;2023-11-21T10:23:34;21.95;;;17.22;;
68700;SDS011;55682;51.114;5.882;2023-11-21T10:26:00;19.35;;;15.64;;
68700;SDS011;55682;51.114;5.882;2023-11-21T10:28:26;20.47;;;16.55;;
68700;SDS011;55682;51.114;5.882;2023-11-21T10:30:52;19.83;;;16.09;;
68700;SDS011;55682;51.114;5.882;2023-11-21T10:33:17;22.09;;;17.53;;
68700;SDS011;55682;51.114;5.882;2023-11-21T10:35:54;22.48;;;17.95;;
68700;SDS011;55682;51.114;5.882;2023-11-21T10:38:20;21.47;;;17.64;;
68700;SDS011;55682;51.114;5.882;2023-11-21T10:40:49;22.16;;;17.72;;
68700;SDS011;55682;51.114;5.882;2023-11-21T10:43:16;23.62;;;18.40;;
68700;SDS011;55682;51.114;5.882;2023-11-21T10:45:42;20.78;;;16.81;;
68700;SDS011;55682;51.114;5.882;2023-11-21T10:48:09;22.33;;;17.99;;
68700;SDS011;55682;51.114;5.882;2023-11-21T10:50:40;21.06;;;17.08;;
68700;SDS011;55682;51.114;5.882;2023-11-21T10:53:07;22.65;;;18.07;;
68700;SDS011;55682;51.114;5.882;2023-11-21T10:55:33;21.71;;;17.50;;
68700;SDS011;55682;51.114;5.882;2023-11-21T10:58:03;20.61;;;17.01;;
68700;SDS011;55682;51.114;5.882;2023-11-21T11:00:30;19.44;;;16.29;;
68700;SDS011;55682;51.114;5.882;2023-11-21T11:02:58;20.56;;;17.22;;
68700;SDS011;55682;51.114;5.882;2023-11-21T11:05:25;19.99;;;16.73;;
68700;SDS011;55682;51.114;5.882;2023-11-21T11:08:00;19.72;;;16.80;;
68700;SDS011;55682;51.114;5.882;2023-11-21T11:10:30;19.66;;;16.52;;
68700;SDS011;55682;51.114;5.882;2023-11-21T11:12:57;19.79;;;16.98;;
68700;SDS011;55682;51.114;5.882;2023-11-21T11:15:24;20.58;;;17.14;;
68700;SDS011;55682;51.114;5.882;2023-11-21T11:17:52;21.28;;;17.69;;
68700;SDS011;55682;51.114;5.882;2023-11-21T11:20:22;21.21;;;17.43;;
68700;SDS011;55682;51.114;5.882;2023-11-21T11:28:30;20.01;;;16.81;;
68700;SDS011;55682;51.114;5.882;2023-11-21T11:31:30;19.43;;;16.17;;
68700;SDS011;55682;51.114;5.882;2023-11-21T11:36:48;19.32;;;16.33;;
68700;SDS011;55682;51.114;5.882;2023-11-21T11:41:57;18.51;;;15.97;;
68700;SDS011;55682;51.114;5.882;2023-11-21T11:44:48;18.89;;;16.14;;
68700;SDS011;55682;51.114;5.882;2023-11-21T11:47:29;16.70;;;15.17;;
68700;SDS011;55682;51.114;5.882;2023-11-21T11:50:06;15.53;;;14.06;;
68700;SDS011;55682;51.114;5.882;2023-11-21T11:52:48;16.45;;;14.71;;
68700;SDS011;55682;51.114;5.882;2023-11-21T11:55:17;16.62;;;14.57;;
68700;SDS011;55682;51.114;5.882;2023-11-21T11:57:45;17.27;;;14.85;;
68700;SDS011;55682;51.114;5.882;2023-11-21T12:00:14;16.26;;;14.33;;
68700;SDS011;55682;51.114;5.882;2023-11-21T12:02:54;14.65;;;13.34;;
68700;SDS011;55682;51.114;5.882;2023-11-21T12:05:24;15.14;;;13.51;;
68700;SDS011;55682;51.114;5.882;2023-11-21T12:07:53;14.45;;;13.03;;
68700;SDS011;55682;51.114;5.882;2023-11-21T12:10:23;15.65;;;13.86;;
68700;SDS011;55682;51.114;5.882;2023-11-21T12:15:19;14.41;;;13.13;;
68700;SDS011;55682;51.114;5.882;2023-11-21T12:17:47;12.81;;;11.65;;
68700;SDS011;55682;51.114;5.882;2023-11-21T12:20:14;12.15;;;11.29;;
68700;SDS011;55682;51.114;5.882;2023-11-21T12:25:09;11.98;;;11.19;;
68700;SDS011;55682;51.114;5.882;2023-11-21T12:27:35;11.88;;;11.05;;
68700;SDS011;55682;51.114;5.882;2023-11-21T12:30:00;11.42;;;10.83;;
68700;SDS011;55682;51.114;5.882;2023-11-21T12:32:26;11.31;;;10.56;;
68700;SDS011;55682;51.114;5.882;2023-11-21T12:34:51;9.56;;;9.10;;
68700;SDS011;55682;51.114;5.882;2023-11-21T12:37:17;9.43;;;9.05;;
68700;SDS011;55682;51.114;5.882;2023-11-21T12:39:43;10.34;;;9.68;;
68700;SDS011;55682;51.114;5.882;2023-11-21T12:42:09;9.60;;;9.20;;
68700;SDS011;55682;51.114;5.882;2023-11-21T12:44:35;10.15;;;9.70;;
68700;SDS011;55682;51.114;5.882;2023-11-21T12:47:02;9.14;;;8.76;;
68700;SDS011;55682;51.114;5.882;2023-11-21T12:49:28;9.30;;;8.98;;
68700;SDS011;55682;51.114;5.882;2023-11-21T12:51:54;9.21;;;8.92;;
68700;SDS011;55682;51.114;5.882;2023-11-21T12:54:20;9.06;;;8.67;;
68700;SDS011;55682;51.114;5.882;2023-11-21T12:56:46;9.29;;;8.85;;
68700;SDS011;55682;51.114;5.882;2023-11-21T12:59:14;9.80;;;9.38;;
68700;SDS011;55682;51.114;5.882;2023-11-21T13:01:42;9.95;;;9.59;;
68700;SDS011;55682;51.114;5.882;2023-11-21T13:04:08;10.45;;;10.19;;
68700;SDS011;55682;51.114;5.882;2023-11-21T13:06:36;11.09;;;10.64;;
68700;SDS011;55682;51.114;5.882;2023-11-21T13:09:09;11.23;;;10.70;;
68700;SDS011;55682;51.114;5.882;2023-11-21T13:11:41;12.52;;;11.72;;
68700;SDS011;55682;51.114;5.882;2023-11-21T13:14:07;12.51;;;12.00;;
68700;SDS011;55682;51.114;5.882;2023-11-21T13:16:37;12.97;;;12.43;;
68700;SDS011;55682;51.114;5.882;2023-11-21T13:19:04;12.94;;;12.07;;
68700;SDS011;55682;51.114;5.882;2023-11-21T13:21:30;12.60;;;11.88;;
68700;SDS011;55682;51.114;5.882;2023-11-21T13:23:55;12.58;;;12.09;;
68700;SDS011;55682;51.114;5.882;2023-11-21T13:26:21;12.24;;;11.82;;
68700;SDS011;55682;51.114;5.882;2023-11-21T13:28:48;12.42;;;11.94;;
68700;SDS011;55682;51.114;5.882;2023-11-21T13:31:14;13.36;;;12.85;;
68700;SDS011;55682;51.114;5.882;2023-11-21T13:33:48;13.60;;;12.90;;
68700;SDS011;55682;51.114;5.882;2023-11-21T13:36:24;12.86;;;12.33;;
68700;SDS011;55682;51.114;5.882;2023-11-21T13:38:50;13.43;;;12.94;;
68700;SDS011;55682;51.114;5.882;2023-11-21T13:41:19;13.53;;;12.90;;
68700;SDS011;55682;51.114;5.882;2023-11-21T13:43:47;13.90;;;13.04;;
68700;SDS011;55682;51.114;5.882;2023-11-21T13:46:22;13.06;;;12.49;;
68700;SDS011;55682;51.114;5.882;2023-11-21T13:48:48;13.07;;;12.56;;
68700;SDS011;55682;51.114;5.882;2023-11-21T13:51:24;13.35;;;12.72;;
68700;SDS011;55682;51.114;5.882;2023-11-21T13:54:09;13.12;;;12.57;;
68700;SDS011;55682;51.114;5.882;2023-11-21T13:56:36;14.05;;;13.42;;
68700;SDS011;55682;51.114;5.882;2023-11-21T13:59:04;13.68;;;12.93;;
68700;SDS011;55682;51.114;5.882;2023-11-21T14:01:42;13.54;;;12.88;;
68700;SDS011;55682;51.114;5.882;2023-11-21T14:04:25;13.36;;;12.83;;
68700;SDS011;55682;51.114;5.882;2023-11-21T14:07:10;13.88;;;13.24;;
68700;SDS011;55682;51.114;5.882;2023-11-21T14:09:47;12.60;;;12.17;;
68700;SDS011;55682;51.114;5.882;2023-11-21T14:12:14;12.62;;;12.10;;
68700;SDS011;55682;51.114;5.882;2023-11-21T14:14:41;13.16;;;12.70;;
68700;SDS011;55682;51.114;5.882;2023-11-21T14:17:06;12.16;;;11.82;;
68700;SDS011;55682;51.114;5.882;2023-11-21T14:19:32;11.33;;;10.92;;
68700;SDS011;55682;51.114;5.882;2023-11-21T14:21:59;11.73;;;11.22;;
68700;SDS011;55682;51.114;5.882;2023-11-21T14:24:25;10.36;;;9.84;;
68700;SDS011;55682;51.114;5.882;2023-11-21T14:26:51;10.56;;;10.22;;
68700;SDS011;55682;51.114;5.882;2023-11-21T14:29:18;9.95;;;9.81;;
68700;SDS011;55682;51.114;5.882;2023-11-21T14:31:48;9.92;;;9.67;;
68700;SDS011;55682;51.114;5.882;2023-11-21T14:34:16;9.93;;;9.66;;
68700;SDS011;55682;51.114;5.882;2023-11-21T14:36:42;9.87;;;9.68;;
68700;SDS011;55682;51.114;5.882;2023-11-21T14:39:09;9.91;;;9.70;;
68700;SDS011;55682;51.114;5.882;2023-11-21T14:41:48;9.63;;;9.48;;